Hlavní strana
METAR-TAF:

METAR-TAF

Letiště :

Letiště Gran Canaria

Gran Canaria, Španělsko

zeměpisná šířka: 27-56N, zeměpisná délka: 015-23W, výška: 23 m

Aktuální stav počasí

Zpráva byla vytvořena před 38 minutami, v 01:00 UTC
Severní vítr 14 kt
Teplota 20°C
Vlhkost vzduchu 49%
Tlak 1024 hPa
Viditelnost 10 km a více
Žádná oblačnost pod 1500 m, nevyskytují se cumulonimby.

METAR: GCLP 260100Z 36014KT CAVOK 20/09 Q1024 NOSIG

Čas: 01:38 (01:38 UTC)

Předpověď počasí

Zpráva byla vytvořena před 5 hodinami a 38 minutami, v 20:00 UTC
Předpověď platná od 25 v 21 UTC do 26 v 21 UTC
Severní vítr 16 kt
Viditelnost 10 km a více
Žádná oblačnost pod 1500 m, nevyskytují se cumulonimby.

TAF: GCLP 252000Z 2521/2621 36016KT CAVOK TX24/2614Z TN16/2606Z

Stav a předpovědi počasí z více než 4 000 letišť (zprávy METAR a TAF).

Červené a žluté tečky na mapě představují dostupné meteorologické stanice.

Když kurzor umístíte na tečku, zobrazí se název stanice.

Pak kliknutím zobrazíte stav a předpověď počasí.

Chcete-li změnit mapu, kliknutím na zelené tlačítko se znaménkem +mapu přiblížíte, kliknutím na zelené tlačítko se znaménkem – mapu oddálíte a kliknutím na zelené šipky přejdete na sousední mapy.


METAR-TAF: